Time;durP1;ratioP1;P1;durP2;ratioP2;P2;SDS_P1;SDS_P2;PMS_P1;PMS_P2;Temp;Humidity;BMP_temperature;BMP_pressure;BME280_temperature;BME280_humidity;BME280_pressure;Samples;Min_cycle;Max_cycle;Signal;HPM_P1;HPM_P2
2021/12/17 05:52:04;;;;;;;;;43.00;33.00;;;;;15.28;93.88;103187.75;5089479;22;45549;-84
2021/12/17 05:58:43;;;;;;;;;;;;;;;;;;;;;
2021/12/17 06:14:51;;;;;;;;;32.75;25.00;;;;;15.39;94.61;103183.72;4707018;26;7786031;-88
2021/12/17 06:17:19;;;;;;;;;41.25;31.50;;;;;15.35;94.57;103188.31;4982892;28;45559;-88
2021/12/17 06:20:19;;;;;;;;;34.50;26.75;;;;;15.41;94.32;103185.34;4998027;28;45717;-88
2021/12/17 06:22:45;;;;;;;;;38.75;27.25;;;;;15.42;94.35;103186.19;4982155;28;46131;-90
2021/12/17 06:25:12;;;;;;;;;29.50;24.50;;;;;15.35;94.55;103183.00;4982188;28;45852;-88
2021/12/17 06:27:38;;;;;;;;;33.75;28.25;;;;;15.31;94.81;103181.41;5000664;28;45257;-89
2021/12/17 06:30:06;;;;;;;;;36.00;28.50;;;;;15.34;94.70;103194.56;4981945;28;45831;-88
2021/12/17 06:32:31;;;;;;;;;31.25;25.50;;;;;15.31;94.91;103194.72;4996449;28;46437;-89
2021/12/17 06:34:57;;;;;;;;;38.50;29.00;;;;;15.35;95.12;103185.66;5000428;28;45506;-88
2021/12/17 06:37:25;;;;;;;;;37.50;30.00;;;;;15.37;95.30;103181.13;4999670;28;45491;-87
2021/12/17 06:40:01;;;;;;;;;;;;;;;;;;;;;
2021/12/17 06:42:26;;;;;;;;;41.25;28.25;;;;;15.28;95.95;103198.41;4997807;28;75834;-87
2021/12/17 06:45:08;;;;;;;;;42.75;30.75;;;;;15.38;96.21;103192.63;4982162;28;45419;-88
2021/12/17 11:52:43;;;;;;;;;35.00;28.00;;;;;17.05;94.33;103133.13;5053903;28;45571;-92
2021/12/17 12:48:31;;;;;;;;;31.25;26.25;;;;;17.02;90.50;103093.28;5228359;22;45780;-90
2021/12/17 13:26:55;;;;;;;;;28.50;25.50;;;;;17.50;87.08;103071.69;5118842;22;45684;-85
2021/12/17 15:05:55;;;;;;;;;20.00;17.25;;;;;17.17;87.67;103042.50;5036006;28;45482;-92
2021/12/17 16:22:52;;;;;;;;;31.00;16.75;;;;;15.43;91.33;103062.78;5040624;28;45062;-86
2021/12/17 16:25:18;;;;;;;;;24.00;15.00;;;;;15.38;91.50;103062.16;5030441;28;45637;-86
2021/12/17 16:27:43;;;;;;;;;23.75;16.00;;;;;15.22;91.96;103056.75;5028175;28;45253;-86
2021/12/17 16:30:10;;;;;;;;;18.50;15.00;;;;;15.30;92.03;103051.88;5027422;28;46341;-86
2021/12/17 16:32:36;;;;;;;;;21.75;15.75;;;;;15.24;92.32;103066.38;5011102;28;46197;-86
2021/12/17 16:35:02;;;;;;;;;24.00;19.25;;;;;15.33;91.98;103065.91;5024699;28;45474;-86
2021/12/17 16:37:28;;;;;;;;;23.50;20.25;;;;;15.30;92.20;103065.19;5022000;28;45205;-87
2021/12/17 16:39:53;;;;;;;;;21.75;16.00;;;;;15.29;92.27;103063.50;5025017;28;45284;-87
2021/12/17 16:42:19;;;;;;;;;23.75;20.00;;;;;15.28;92.67;103059.97;5019084;28;45168;-86
2021/12/17 16:45:19;;;;;;;;;20.00;14.25;;;;;15.29;92.55;103063.50;5017104;28;45400;-86
2021/12/17 16:47:37;;;;;;;;;19.50;15.50;;;;;15.25;92.93;103069.91;5021322;28;45475;-86
2021/12/17 16:50:05;;;;;;;;;26.50;20.00;;;;;15.24;92.92;103065.50;5022733;28;46406;-86
2021/12/17 16:52:31;;;;;;;;;27.00;21.00;;;;;15.20;92.83;103075.47;5021389;28;45469;-87
2021/12/17 16:55:00;;;;;;;;;26.25;20.25;;;;;15.26;93.08;103066.31;5023266;28;45466;-84
2021/12/17 16:57:33;;;;;;;;;27.25;16.00;;;;;15.37;92.63;103055.13;5018400;28;45816;-84
2021/12/17 17:00:00;;;;;;;;;28.50;20.50;;;;;15.38;92.85;103057.72;5022807;28;45664;-85
2021/12/17 17:02:26;;;;;;;;;23.00;15.75;;;;;15.23;93.19;103053.13;5024286;28;45435;-84
2021/12/17 17:04:52;;;;;;;;;23.00;16.00;;;;;15.25;93.22;103057.47;5023683;28;45273;-87
2021/12/17 17:07:17;;;;;;;;;21.75;19.25;;;;;15.26;93.12;103053.00;5020890;28;45465;-86
2021/12/17 17:09:43;;;;;;;;;36.00;22.25;;;;;15.27;93.11;103054.72;5005183;28;48038;-86
2021/12/17 17:12:11;;;;;;;;;36.75;22.50;;;;;15.32;93.14;103050.00;5023499;28;45328;-86
2021/12/17 17:14:38;;;;;;;;;36.00;27.50;;;;;15.32;93.20;103055.34;5012140;28;45476;-84
2021/12/17 17:17:08;;;;;;;;;28.50;22.75;;;;;15.26;93.12;103043.22;5027240;28;45376;-86
2021/12/17 17:19:35;;;;;;;;;32.50;22.75;;;;;15.27;93.23;103047.59;5023744;28;46270;-85
2021/12/17 17:22:05;;;;;;;;;27.25;21.25;;;;;15.23;93.47;103045.16;5026879;28;45602;-85
2021/12/17 17:24:31;;;;;;;;;35.75;19.00;;;;;15.25;93.46;103062.78;5023612;28;45550;-85
2021/12/17 17:26:57;;;;;;;;;25.50;21.50;;;;;15.21;93.28;103050.56;5022211;28;45303;-85
2021/12/17 17:29:23;;;;;;;;;29.25;24.00;;;;;15.17;93.38;103048.13;5021321;28;45499;-85
2021/12/17 17:31:49;;;;;;;;;33.25;23.00;;;;;15.15;93.91;103052.66;5022160;28;45286;-85
2021/12/17 17:34:14;;;;;;;;;35.50;25.25;;;;;15.19;93.68;103052.44;5022070;28;45389;-86
2021/12/17 17:36:41;;;;;;;;;32.75;24.00;;;;;15.18;93.95;103061.38;5021844;28;45217;-85
2021/12/17 17:39:10;;;;;;;;;35.25;24.75;;;;;15.19;94.15;103055.13;5021140;28;46390;-85
2021/12/17 17:41:35;;;;;;;;;27.75;19.00;;;;;15.14;94.06;103046.47;5033202;28;45463;-86
2021/12/17 17:44:01;;;;;;;;;33.00;24.50;;;;;15.17;93.80;103058.78;5019182;28;45412;-86
2021/12/17 17:46:30;;;;;;;;;28.75;22.75;;;;;15.23;94.32;103061.13;4995150;28;45331;-85
2021/12/17 17:48:56;;;;;;;;;33.50;22.25;;;;;15.13;94.07;103046.56;5020834;28;45626;-85
2021/12/17 17:51:21;;;;;;;;;34.75;27.00;;;;;15.09;94.19;103042.34;5038976;28;46069;-85
2021/12/17 17:53:47;;;;;;;;;36.25;30.50;;;;;15.07;94.39;103057.50;5040215;28;44766;-85
2021/12/17 17:56:13;;;;;;;;;30.75;26.75;;;;;15.08;94.33;103065.44;5042308;28;45566;-86
2021/12/17 17:58:38;;;;;;;;;35.75;25.50;;;;;15.03;94.39;103062.13;5042620;28;46978;-85
2021/12/17 18:01:05;;;;;;;;;33.25;25.00;;;;;15.05;94.58;103054.06;5041277;28;44889;-84
2021/12/17 18:03:31;;;;;;;;;39.75;30.00;;;;;15.04;94.30;103055.84;5026994;28;45395;-86
2021/12/17 18:06:00;;;;;;;;;42.25;32.75;;;;;15.05;94.64;103054.06;5013046;28;45633;-86
2021/12/17 18:08:26;;;;;;;;;36.00;29.50;;;;;15.25;94.06;103067.25;5004916;28;46205;-86
2021/12/17 18:10:53;;;;;;;;;31.75;24.75;;;;;15.21;93.94;103055.88;5019501;28;45883;-86
2021/12/17 18:13:20;;;;;;;;;32.75;25.75;;;;;15.21;94.46;103061.19;5019165;28;45827;-86
2021/12/17 18:15:51;;;;;;;;;31.25;25.00;;;;;15.18;94.10;103064.03;5019899;28;45471;-85
2021/12/17 18:18:19;;;;;;;;;34.00;24.25;;;;;15.17;94.16;103064.09;5021468;28;47295;-85
2021/12/17 18:20:47;;;;;;;;;30.50;24.00;;;;;15.23;94.24;103071.78;5017555;28;45676;-86
2021/12/17 18:23:13;;;;;;;;;40.00;24.00;;;;;15.15;94.18;103068.63;5019451;28;45409;-87
2021/12/17 18:25:41;;;;;;;;;33.50;24.75;;;;;15.18;94.12;103065.84;5019446;28;45407;-87
2021/12/17 18:28:07;;;;;;;;;31.50;22.50;;;;;15.21;94.33;103074.50;5019399;28;45484;-87
2021/12/17 18:30:34;;;;;;;;;34.00;26.25;;;;;15.17;94.67;103080.94;5018677;28;45407;-87
2021/12/17 18:33:00;;;;;;;;;40.75;30.75;;;;;15.05;94.42;103086.84;5021746;28;45444;-85
2021/12/17 18:35:27;;;;;;;;;39.00;28.50;;;;;15.01;94.58;103079.97;5019257;28;45313;-86
2021/12/17 18:37:53;;;;;;;;;37.50;26.75;;;;;14.99;94.39;103076.53;5018676;28;46283;-86
2021/12/17 18:40:23;;;;;;;;;30.25;24.25;;;;;14.95;94.52;103081.13;5019072;28;45807;-86
2021/12/17 18:45:44;;;;;;;;;44.25;35.00;;;;;14.92;95.02;103093.72;5017535;28;45409;-85
2021/12/17 18:48:13;;;;;;;;;41.75;30.00;;;;;14.93;95.41;103090.97;5018659;28;46263;-86
2021/12/17 18:50:39;;;;;;;;;32.75;24.75;;;;;14.94;95.17;103098.00;5020170;28;45458;-84
2021/12/17 18:53:05;;;;;;;;;42.50;28.75;;;;;14.89;94.87;103096.53;5017665;28;45544;-85
2021/12/17 18:55:35;;;;;;;;;38.25;32.50;;;;;14.93;95.23;103103.44;5017576;28;45466;-86
2021/12/17 18:58:01;;;;;;;;;37.75;28.50;;;;;14.84;95.07;103093.25;5009648;28;46490;-84
2021/12/17 19:00:28;;;;;;;;;49.25;35.25;;;;;14.77;95.35;103092.66;5016446;28;45870;-85
2021/12/17 19:02:53;;;;;;;;;37.25;30.50;;;;;14.72;95.37;103092.03;5016111;28;45503;-85
2021/12/17 19:05:19;;;;;;;;;37.00;30.25;;;;;14.67;95.65;103088.69;5016803;28;45457;-85
2021/12/17 19:07:45;;;;;;;;;39.25;27.25;;;;;14.67;95.62;103085.16;5016905;28;48207;-84
2021/12/17 19:10:11;;;;;;;;;43.50;30.75;;;;;14.68;95.96;103085.09;5016056;28;45476;-84
2021/12/17 19:12:38;;;;;;;;;41.25;31.25;;;;;14.68;95.87;103085.09;4999456;28;45512;-85
2021/12/17 19:15:05;;;;;;;;;49.50;34.25;;;;;14.56;95.99;103083.03;4998051;28;45321;-85
2021/12/17 19:17:32;;;;;;;;;39.25;27.75;;;;;14.55;96.44;103079.53;5015105;28;47551;-86
2021/12/17 19:20:13;;;;;;;;;38.25;29.50;;;;;14.55;96.15;103078.66;5015304;28;45791;-85
2021/12/17 19:22:41;;;;;;;;;34.00;29.75;;;;;14.57;96.49;103074.09;5016446;28;45584;-85
2021/12/17 19:25:12;;;;;;;;;53.75;34.00;;;;;14.59;96.28;103078.44;5021937;28;45558;-85
2021/12/17 19:27:39;;;;;;;;;42.00;34.50;;;;;14.53;96.09;103076.06;5015792;28;46990;-84
2021/12/17 19:30:07;;;;;;;;;51.00;36.25;;;;;14.62;95.92;103079.22;5019957;28;45863;-84
2021/12/17 19:32:33;;;;;;;;;47.50;34.75;;;;;14.56;96.30;103075.94;5018890;28;45439;-84
2021/12/17 19:34:58;;;;;;;;;46.00;36.25;;;;;14.44;96.65;103078.28;5001126;28;45664;-84
2021/12/17 19:37:24;;;;;;;;;42.75;38.75;;;;;14.39;96.86;103080.28;5017581;28;46450;-84
2021/12/17 19:39:51;;;;;;;;;49.75;34.50;;;;;14.36;96.74;103083.94;5017990;28;45420;-85
2021/12/17 19:42:20;;;;;;;;;39.50;31.00;;;;;14.33;97.10;103097.34;5013432;28;45570;-84
2021/12/17 19:44:47;;;;;;;;;56.00;37.25;;;;;14.34;97.46;103093.78;5016424;28;45388;-84
2021/12/17 19:52:08;;;;;;;;;59.75;43.75;;;;;14.32;97.74;103113.38;5020221;28;45254;-84
2021/12/17 19:54:37;;;;;;;;;48.75;35.25;;;;;14.19;97.91;103108.63;5022034;28;45659;-84
2021/12/17 19:57:03;;;;;;;;;50.50;37.00;;;;;14.23;97.79;103106.69;5019543;28;47016;-84
2021/12/17 19:59:28;;;;;;;;;49.75;38.75;;;;;14.16;97.85;103111.41;5022401;28;45574;-84
2021/12/17 20:01:55;;;;;;;;;50.25;37.00;;;;;14.17;97.99;103105.16;5023096;28;45396;-86
2021/12/17 20:04:24;;;;;;;;;50.75;38.25;;;;;14.15;98.19;103099.06;5004366;28;45652;-86
2021/12/17 20:06:51;;;;;;;;;53.75;38.25;;;;;14.12;97.99;103098.31;5002922;28;47404;-85
2021/12/17 20:09:18;;;;;;;;;53.75;37.50;;;;;14.12;98.26;103103.63;5019733;28;45916;-85
2021/12/17 20:11:44;;;;;;;;;41.50;33.00;;;;;14.14;98.75;103112.41;5019312;28;45448;-84
2021/12/17 20:14:10;;;;;;;;;50.75;38.25;;;;;14.05;98.45;103116.34;5017835;28;45586;-85
2021/12/17 20:16:37;;;;;;;;;53.75;40.25;;;;;14.01;98.63;103105.94;5018491;28;46108;-85
2021/12/17 20:19:04;;;;;;;;;58.50;42.50;;;;;14.03;98.98;103107.56;5018174;28;45942;-85
2021/12/17 20:21:30;;;;;;;;;56.75;38.75;;;;;13.99;98.91;103113.97;5001625;28;45476;-84
2021/12/17 20:23:56;;;;;;;;;48.25;37.25;;;;;14.09;99.41;103109.09;5002051;28;45432;-83
2021/12/17 20:26:21;;;;;;;;;56.50;40.00;;;;;14.21;99.45;103119.16;5020735;28;45499;-85
2021/12/17 20:28:49;;;;;;;;;55.00;39.00;;;;;14.16;98.91;103114.06;5021959;28;45600;-85
2021/12/17 20:31:17;;;;;;;;;54.25;39.00;;;;;14.08;99.15;103118.00;5022337;28;45450;-84
2021/12/17 20:33:43;;;;;;;;;50.50;37.75;;;;;14.18;99.36;103119.31;5021404;28;45520;-84
2021/12/17 20:36:08;;;;;;;;;53.75;39.00;;;;;14.20;98.97;103112.97;5025784;28;46182;-84
2021/12/17 20:38:34;;;;;;;;;51.25;37.50;;;;;14.16;99.13;103123.84;5021320;28;45451;-84
2021/12/17 20:41:04;;;;;;;;;56.00;40.50;;;;;14.06;98.95;103122.50;5022401;28;45355;-84
2021/12/17 20:43:38;;;;;;;;;56.50;39.75;;;;;14.06;99.16;103118.06;5020450;28;45325;-84
2021/12/17 20:46:05;;;;;;;;;59.25;40.75;;;;;14.07;99.46;103121.59;5006931;28;46361;-85
2021/12/17 20:48:30;;;;;;;;;59.50;41.00;;;;;13.85;99.81;103113.69;5021723;28;45926;-84
2021/12/17 20:50:56;;;;;;;;;62.50;40.75;;;;;14.08;99.35;103120.66;5024940;28;45412;-84
2021/12/17 20:53:22;;;;;;;;;49.50;37.75;;;;;14.04;99.66;103114.59;5023838;28;45461;-84
2021/12/17 20:55:47;;;;;;;;;54.50;38.50;;;;;14.02;99.29;103110.31;5028536;28;46827;-85
2021/12/17 20:58:13;;;;;;;;;56.75;37.75;;;;;14.10;99.55;103111.69;5013987;28;45359;-85
2021/12/17 21:00:40;;;;;;;;;57.50;39.00;;;;;14.25;99.05;103112.78;5027228;28;45483;-86
2021/12/17 21:03:08;;;;;;;;;62.00;41.25;;;;;14.29;98.68;103118.84;5035183;28;45589;-84
2021/12/17 21:05:35;;;;;;;;;53.00;33.50;;;;;14.23;98.34;103109.34;5033949;28;45704;-85
2021/12/17 21:08:03;;;;;;;;;52.50;40.75;;;;;14.18;99.09;103121.97;5027804;28;45308;-85
2021/12/17 21:10:30;;;;;;;;;56.50;40.25;;;;;14.16;98.79;103108.75;5028998;28;45416;-84
2021/12/17 21:13:01;;;;;;;;;55.25;39.75;;;;;14.28;98.22;103114.47;5026560;28;45608;-84
2021/12/17 21:15:28;;;;;;;;;51.75;39.50;;;;;14.28;98.24;103099.38;5024325;28;45541;-85
2021/12/17 21:17:56;;;;;;;;;55.00;37.75;;;;;14.28;98.31;103110.00;5023438;28;45785;-85
2021/12/17 21:20:26;;;;;;;;;56.50;39.75;;;;;14.10;98.74;103109.03;5023992;28;45451;-85
2021/12/17 21:22:55;;;;;;;;;54.25;39.25;;;;;14.17;98.72;103106.97;5017877;28;45451;-86
2021/12/17 21:25:20;;;;;;;;;52.25;36.50;;;;;14.01;98.52;103103.28;5020794;28;45366;-84
2021/12/17 21:27:46;;;;;;;;;54.75;39.25;;;;;14.03;98.62;103110.22;5021925;28;45608;-85
2021/12/17 21:30:12;;;;;;;;;52.25;39.50;;;;;14.06;98.51;103107.44;5033334;28;45324;-85
2021/12/17 21:32:39;;;;;;;;;48.50;37.75;;;;;14.03;98.81;103107.56;5020888;28;45452;-83
2021/12/17 21:35:15;;;;;;;;;62.50;40.75;;;;;13.97;98.87;103112.28;5020593;28;46399;-85
2021/12/17 21:37:41;;;;;;;;;59.00;41.00;;;;;13.87;98.53;103114.50;5008629;28;45752;-85
2021/12/17 21:40:08;;;;;;;;;45.00;35.00;;;;;13.88;98.62;103102.06;5025780;28;45547;-84
2021/12/17 21:42:34;;;;;;;;;53.50;36.50;;;;;13.96;98.49;103119.41;5018600;28;45805;-83
2021/12/17 21:44:59;;;;;;;;;50.00;34.25;;;;;13.96;98.48;103118.53;5034409;28;46360;-84
2021/12/17 21:47:25;;;;;;;;;50.25;38.00;;;;;13.84;98.52;103109.31;5021297;28;45414;-83
2021/12/17 21:49:51;;;;;;;;;55.00;37.00;;;;;13.85;98.53;103121.66;5019164;28;45480;-84
2021/12/17 21:52:16;;;;;;;;;45.75;34.50;;;;;13.87;98.28;103114.50;5021220;28;45566;-84
2021/12/17 21:54:43;;;;;;;;;47.00;33.75;;;;;13.92;98.47;103114.31;5005516;28;45924;-84
2021/12/17 21:57:09;;;;;;;;;50.50;36.75;;;;;13.93;98.36;103122.19;5003363;28;45775;-85
2021/12/17 21:59:35;;;;;;;;;54.00;32.00;;;;;13.92;98.43;103116.97;5014829;28;45412;-86
2021/12/17 22:02:01;;;;;;;;;44.75;29.75;;;;;13.93;98.21;103116.03;5018580;28;45557;-84
2021/12/17 22:04:29;;;;;;;;;57.00;38.50;;;;;13.93;98.46;103116.88;5023976;28;46645;-84
2021/12/17 22:06:59;;;;;;;;;44.25;36.50;;;;;13.73;98.39;103107.13;5021043;28;45296;-84
2021/12/17 22:09:25;;;;;;;;;52.75;33.25;;;;;13.85;98.28;103117.22;5020226;28;45440;-84
2021/12/17 22:11:50;;;;;;;;;50.25;36.25;;;;;13.85;98.19;103111.91;5021949;28;45280;-84
2021/12/17 22:14:17;;;;;;;;;45.25;37.00;;;;;13.88;98.14;103116.22;5020774;28;45324;-84
2021/12/17 22:16:43;;;;;;;;;41.00;38.00;;;;;13.82;98.12;103113.84;5021130;28;45701;-84
2021/12/17 22:19:10;;;;;;;;;44.25;31.25;;;;;13.89;98.33;103117.09;5020738;28;45341;-83
2021/12/17 22:21:42;;;;;;;;;37.25;30.25;;;;;13.84;98.03;103111.97;5020424;28;45368;-84
2021/12/17 22:24:07;;;;;;;;;55.00;34.00;;;;;13.89;98.00;103117.09;5018207;28;47280;-84
2021/12/17 22:26:33;;;;;;;;;44.25;32.00;;;;;13.87;97.81;103117.16;5020753;28;45465;-84
2021/12/17 22:28:59;;;;;;;;;47.50;28.75;;;;;13.76;98.06;103111.44;5019853;28;45522;-84
2021/12/17 22:31:25;;;;;;;;;54.00;36.25;;;;;13.68;97.96;103101.13;5020653;28;46054;-84
2021/12/17 22:33:50;;;;;;;;;59.00;37.00;;;;;13.72;98.17;103104.53;5020759;28;46617;-84
2021/12/17 22:36:16;;;;;;;;;54.50;37.75;;;;;13.68;97.77;103105.59;5028394;28;45423;-84
2021/12/17 22:38:48;;;;;;;;;48.50;37.25;;;;;13.70;98.01;103107.25;5005432;28;45255;-84
2021/12/17 22:43:52;;;;;;;;;52.25;37.00;;;;;13.54;97.93;103116.81;5019993;28;45399;-84
2021/12/17 22:46:18;;;;;;;;;56.00;37.50;;;;;13.47;97.68;103110.03;5013282;28;45560;-84
2021/12/17 22:48:45;;;;;;;;;39.25;35.00;;;;;13.57;97.78;103119.31;5020422;28;45515;-84
2021/12/17 22:51:11;;;;;;;;;44.75;37.50;;;;;13.54;97.81;103114.16;5028965;28;45278;-83
2021/12/17 22:53:37;;;;;;;;;50.25;37.25;;;;;13.62;97.66;103122.66;5020323;28;45288;-84
2021/12/17 22:56:03;;;;;;;;;46.25;36.50;;;;;13.61;97.44;103123.56;5032500;28;45305;-84
2021/12/17 22:58:29;;;;;;;;;53.00;32.25;;;;;13.55;97.44;103123.84;5019523;28;45368;-84
2021/12/17 23:01:02;;;;;;;;;46.50;38.25;;;;;13.61;97.39;103123.56;5019085;28;45652;-84
2021/12/17 23:03:34;;;;;;;;;46.75;36.25;;;;;13.58;97.58;103123.69;5020176;28;45916;-84
2021/12/17 23:06:00;;;;;;;;;43.25;33.75;;;;;13.50;97.32;103115.19;5002430;28;45660;-84
2021/12/17 23:08:42;;;;;;;;;51.00;35.50;;;;;13.54;97.04;103114.16;5002627;28;45212;-84
2021/12/17 23:11:08;;;;;;;;;46.00;30.75;;;;;13.58;97.29;103118.38;5023027;28;45402;-84
2021/12/17 23:13:34;;;;;;;;;40.25;31.50;;;;;13.62;96.94;103124.44;5028627;28;45339;-84
2021/12/17 23:15:59;;;;;;;;;43.25;34.50;;;;;13.60;96.94;103124.50;5020987;28;45527;-84
2021/12/17 23:18:26;;;;;;;;;40.50;33.25;;;;;13.51;97.19;103118.72;5012865;28;45507;-84
2021/12/17 23:20:51;;;;;;;;;47.50;34.25;;;;;13.48;97.01;103123.22;5015072;28;45440;-84
2021/12/17 23:23:17;;;;;;;;;41.00;31.25;;;;;13.43;97.24;103125.22;5020018;28;46452;-84
2021/12/17 23:25:42;;;;;;;;;51.75;36.00;;;;;13.45;97.12;103126.03;5019525;28;45403;-84
2021/12/17 23:28:09;;;;;;;;;48.25;32.75;;;;;13.47;96.79;103125.97;5002338;28;45314;-84
2021/12/17 23:30:34;;;;;;;;;38.00;31.75;;;;;13.54;96.68;103129.22;5019729;28;45398;-84
2021/12/17 23:33:04;;;;;;;;;26.75;24.50;;;;;13.43;96.46;103119.91;5011474;28;46335;-83
2021/12/17 23:35:37;;;;;;;;;40.50;34.25;;;;;13.40;96.53;103119.16;5024915;28;45364;-83
2021/12/17 23:38:02;;;;;;;;;39.00;30.75;;;;;13.40;96.49;103116.50;5028862;28;45401;-84
2021/12/17 23:40:28;;;;;;;;;43.75;33.00;;;;;13.42;96.59;103117.31;5014356;28;45543;-84
2021/12/17 23:42:53;;;;;;;;;33.75;29.75;;;;;13.39;96.68;103118.28;5018082;28;45403;-84
2021/12/17 23:45:19;;;;;;;;;34.50;26.75;;;;;13.38;96.50;103119.22;5019116;28;46592;-84
2021/12/17 23:47:44;;;;;;;;;32.75;27.75;;;;;13.23;96.48;103114.56;5018840;28;45418;-84
2021/12/17 23:50:09;;;;;;;;;41.25;30.75;;;;;13.25;96.91;103120.66;5017677;28;45568;-84
2021/12/17 23:52:35;;;;;;;;;38.00;32.75;;;;;13.28;96.91;103125.88;5019269;28;45366;-84
2021/12/17 23:55:00;;;;;;;;;38.00;31.25;;;;;13.23;96.80;103119.00;5019491;28;45374;-84
2021/12/17 23:57:26;;;;;;;;;37.00;30.75;;;;;13.22;97.92;103122.56;5027265;28;45308;-85
2021/12/17 23:59:51;;;;;;;;;36.00;26.75;;;;;13.22;98.19;103118.13;5029085;28;45499;-88
